sensor_id;sensor_type;location;lat;lon;timestamp;pressure;altitude;pressure_sealevel;temperature;humidity
71424;BME280;59240;51.370;-0.486;2023-05-16T00:00:48;102296.72;;;11.47;64.02
71424;BME280;59240;51.370;-0.486;2023-05-16T00:03:19;102286.25;;;11.38;64.30
71424;BME280;59240;51.370;-0.486;2023-05-16T00:05:46;102292.38;;;11.35;63.85
71424;BME280;59240;51.370;-0.486;2023-05-16T00:08:13;102296.72;;;11.30;64.41
71424;BME280;59240;51.370;-0.486;2023-05-16T00:10:40;102272.38;;;11.11;65.01
71424;BME280;59240;51.370;-0.486;2023-05-16T00:13:06;102299.34;;;11.15;64.84
71424;BME280;59240;51.370;-0.486;2023-05-16T00:15:33;102294.97;;;11.09;64.76
71424;BME280;59240;51.370;-0.486;2023-05-16T00:18:00;102291.50;;;11.04;65.03
71424;BME280;59240;51.370;-0.486;2023-05-16T00:20:27;102281.94;;;10.95;64.52
71424;BME280;59240;51.370;-0.486;2023-05-16T00:22:54;102287.16;;;10.95;64.65
71424;BME280;59240;51.370;-0.486;2023-05-16T00:25:21;102286.28;;;10.87;65.29
71424;BME280;59240;51.370;-0.486;2023-05-16T00:27:48;102274.97;;;10.76;65.68
71424;BME280;59240;51.370;-0.486;2023-05-16T00:30:14;102283.66;;;10.75;65.32
71424;BME280;59240;51.370;-0.486;2023-05-16T00:32:41;102294.09;;;10.78;66.23
71424;BME280;59240;51.370;-0.486;2023-05-16T00:35:08;102264.53;;;10.58;65.80
71424;BME280;59240;51.370;-0.486;2023-05-16T00:37:37;102282.78;;;10.68;65.64
71424;BME280;59240;51.370;-0.486;2023-05-16T00:40:04;102276.69;;;10.63;66.39
71424;BME280;59240;51.370;-0.486;2023-05-16T00:42:31;102294.97;;;10.71;66.10
71424;BME280;59240;51.370;-0.486;2023-05-16T00:44:58;102283.63;;;10.60;66.27
71424;BME280;59240;51.370;-0.486;2023-05-16T00:47:25;102302.75;;;10.68;66.44
71424;BME280;59240;51.370;-0.486;2023-05-16T00:49:52;102303.63;;;10.70;66.32
71424;BME280;59240;51.370;-0.486;2023-05-16T00:52:19;102311.47;;;10.75;67.77
71424;BME280;59240;51.370;-0.486;2023-05-16T00:54:45;102304.50;;;10.75;67.74
71424;BME280;59240;51.370;-0.486;2023-05-16T00:57:12;102273.22;;;10.57;68.21
71424;BME280;59240;51.370;-0.486;2023-05-16T00:59:39;102309.75;;;10.81;68.27
71424;BME280;59240;51.370;-0.486;2023-05-16T01:02:07;102301.06;;;10.85;68.83
71424;BME280;59240;51.370;-0.486;2023-05-16T01:04:34;102289.75;;;10.80;68.56
71424;BME280;59240;51.370;-0.486;2023-05-16T01:07:01;102285.41;;;10.82;68.55
71424;BME280;59240;51.370;-0.486;2023-05-16T01:09:28;102302.81;;;11.02;69.40
71424;BME280;59240;51.370;-0.486;2023-05-16T01:14:55;102304.53;;;11.10;69.13
71424;BME280;59240;51.370;-0.486;2023-05-16T01:22:51;102311.50;;;11.16;68.34
71424;BME280;59240;51.370;-0.486;2023-05-16T01:28:05;102284.53;;;11.05;69.07
71424;BME280;59240;51.370;-0.486;2023-05-16T01:30:36;102309.75;;;11.18;68.95
71424;BME280;59240;51.370;-0.486;2023-05-16T01:33:03;102294.13;;;11.09;68.87
71424;BME280;59240;51.370;-0.486;2023-05-16T01:35:30;102306.28;;;11.14;69.00
71424;BME280;59240;51.370;-0.486;2023-05-16T01:38:04;102305.44;;;11.14;68.98
71424;BME280;59240;51.370;-0.486;2023-05-16T01:43:33;102308.03;;;11.08;69.34
71424;BME280;59240;51.370;-0.486;2023-05-16T01:46:33;102299.34;;;11.06;70.32
71424;BME280;59240;51.370;-0.486;2023-05-16T01:51:50;102299.34;;;11.00;69.17
71424;BME280;59240;51.370;-0.486;2023-05-16T01:54:18;102303.66;;;10.98;68.27
71424;BME280;59240;51.370;-0.486;2023-05-16T01:56:50;102296.72;;;10.92;69.90
71424;BME280;59240;51.370;-0.486;2023-05-16T01:59:19;102304.53;;;10.90;69.59
71424;BME280;59240;51.370;-0.486;2023-05-16T02:01:47;102303.69;;;10.85;68.80
71424;BME280;59240;51.370;-0.486;2023-05-16T02:04:14;102283.66;;;10.69;69.49
71424;BME280;59240;51.370;-0.486;2023-05-16T02:06:41;102288.00;;;10.67;69.44
71424;BME280;59240;51.370;-0.486;2023-05-16T02:09:08;102307.13;;;10.74;69.29
71424;BME280;59240;51.370;-0.486;2023-05-16T02:11:35;102303.63;;;10.68;69.76
71424;BME280;59240;51.370;-0.486;2023-05-16T02:14:02;102306.25;;;10.67;68.95
71424;BME280;59240;51.370;-0.486;2023-05-16T02:16:29;102271.47;;;10.44;69.61
71424;BME280;59240;51.370;-0.486;2023-05-16T02:18:56;102292.31;;;10.53;69.22
71424;BME280;59240;51.370;-0.486;2023-05-16T02:21:23;102288.81;;;10.46;69.24
71424;BME280;59240;51.370;-0.486;2023-05-16T02:23:50;102291.44;;;10.43;69.46
71424;BME280;59240;51.370;-0.486;2023-05-16T02:26:17;102304.44;;;10.48;69.23
71424;BME280;59240;51.370;-0.486;2023-05-16T02:28:43;102302.69;;;10.42;69.70
71424;BME280;59240;51.370;-0.486;2023-05-16T02:31:10;102289.66;;;10.33;70.14
71424;BME280;59240;51.370;-0.486;2023-05-16T02:33:37;102308.78;;;10.41;69.46
71424;BME280;59240;51.370;-0.486;2023-05-16T02:36:03;102300.06;;;10.36;69.69
71424;BME280;59240;51.370;-0.486;2023-05-16T02:38:30;102301.81;;;10.32;69.66
71424;BME280;59240;51.370;-0.486;2023-05-16T02:40:56;102280.03;;;10.18;70.52
71424;BME280;59240;51.370;-0.486;2023-05-16T02:43:23;102284.38;;;10.16;70.29
71424;BME280;59240;51.370;-0.486;2023-05-16T02:45:50;102305.19;;;10.22;70.35
71424;BME280;59240;51.370;-0.486;2023-05-16T02:48:16;102303.47;;;10.18;70.83
71424;BME280;59240;51.370;-0.486;2023-05-16T02:50:43;102293.88;;;10.14;70.13
71424;BME280;59240;51.370;-0.486;2023-05-16T02:53:09;102307.78;;;10.13;70.84
71424;BME280;59240;51.370;-0.486;2023-05-16T02:55:36;102289.47;;;9.98;70.49
71424;BME280;59240;51.370;-0.486;2023-05-16T02:58:04;102302.53;;;10.07;70.31
71424;BME280;59240;51.370;-0.486;2023-05-16T03:00:30;102302.53;;;10.04;69.52
71424;BME280;59240;51.370;-0.486;2023-05-16T03:02:57;102306.84;;;10.00;70.20
71424;BME280;59240;51.370;-0.486;2023-05-16T03:05:24;102300.72;;;9.94;70.83
71424;BME280;59240;51.370;-0.486;2023-05-16T03:07:52;102292.06;;;9.89;70.67
71424;BME280;59240;51.370;-0.486;2023-05-16T03:10:19;102294.63;;;9.87;70.22
71424;BME280;59240;51.370;-0.486;2023-05-16T03:12:45;102298.97;;;9.86;70.15
71424;BME280;59240;51.370;-0.486;2023-05-16T03:15:12;102266.75;;;9.65;70.90
71424;BME280;59240;51.370;-0.486;2023-05-16T03:17:39;102310.19;;;9.79;70.74
71424;BME280;59240;51.370;-0.486;2023-05-16T03:20:06;102294.53;;;9.72;69.77
71424;BME280;59240;51.370;-0.486;2023-05-16T03:22:34;102300.63;;;9.69;70.41
71424;BME280;59240;51.370;-0.486;2023-05-16T03:25:01;102291.03;;;9.62;69.94
71424;BME280;59240;51.370;-0.486;2023-05-16T03:27:28;102304.03;;;9.67;70.83
71424;BME280;59240;51.370;-0.486;2023-05-16T03:29:54;102310.97;;;9.66;70.83
71424;BME280;59240;51.370;-0.486;2023-05-16T03:32:21;102294.47;;;9.56;70.53
71424;BME280;59240;51.370;-0.486;2023-05-16T03:34:47;102277.03;;;9.45;70.22
71424;BME280;59240;51.370;-0.486;2023-05-16T03:37:14;102292.63;;;9.43;70.01
71424;BME280;59240;51.370;-0.486;2023-05-16T03:39:41;102284.78;;;9.39;70.82
71424;BME280;59240;51.370;-0.486;2023-05-16T03:42:08;102299.56;;;9.41;69.71
71424;BME280;59240;51.370;-0.486;2023-05-16T03:44:34;102295.13;;;9.32;70.79
71424;BME280;59240;51.370;-0.486;2023-05-16T03:47:01;102296.88;;;9.29;69.86
71424;BME280;59240;51.370;-0.486;2023-05-16T03:49:27;102309.00;;;9.28;70.51
71424;BME280;59240;51.370;-0.486;2023-05-16T03:51:54;102299.41;;;9.20;69.96
71424;BME280;59240;51.370;-0.486;2023-05-16T03:54:21;102310.69;;;9.20;70.84
71424;BME280;59240;51.370;-0.486;2023-05-16T03:56:47;102314.97;;;9.18;70.50
71424;BME280;59240;51.370;-0.486;2023-05-16T03:59:14;102321.03;;;9.14;69.96
71424;BME280;59240;51.370;-0.486;2023-05-16T04:01:40;102310.50;;;9.02;70.25
71424;BME280;59240;51.370;-0.486;2023-05-16T04:04:07;102323.56;;;9.07;70.19
71424;BME280;59240;51.370;-0.486;2023-05-16T04:06:33;102321.78;;;9.01;70.32
71424;BME280;59240;51.370;-0.486;2023-05-16T04:09:00;102325.19;;;8.97;70.58
71424;BME280;59240;51.370;-0.486;2023-05-16T04:11:26;102334.75;;;8.99;70.72
71424;BME280;59240;51.370;-0.486;2023-05-16T04:13:53;102317.31;;;8.91;70.80
71424;BME280;59240;51.370;-0.486;2023-05-16T04:16:20;102329.44;;;8.89;70.39
71424;BME280;59240;51.370;-0.486;2023-05-16T04:18:47;102305.06;;;8.74;70.92
71424;BME280;59240;51.370;-0.486;2023-05-16T04:21:13;102334.63;;;8.87;70.92
71424;BME280;59240;51.370;-0.486;2023-05-16T04:23:40;102337.19;;;8.84;70.82
71424;BME280;59240;51.370;-0.486;2023-05-16T04:26:07;102339.78;;;8.83;70.90
71424;BME280;59240;51.370;-0.486;2023-05-16T04:28:34;102341.50;;;8.81;71.30
71424;BME280;59240;51.370;-0.486;2023-05-16T04:31:01;102339.75;;;8.80;70.77
71424;BME280;59240;51.370;-0.486;2023-05-16T04:33:28;102356.22;;;8.83;71.03
71424;BME280;59240;51.370;-0.486;2023-05-16T04:35:55;102352.75;;;8.83;70.73
71424;BME280;59240;51.370;-0.486;2023-05-16T04:38:23;102337.97;;;8.75;71.51
71424;BME280;59240;51.370;-0.486;2023-05-16T04:40:50;102348.44;;;8.82;70.92
71424;BME280;59240;51.370;-0.486;2023-05-16T04:43:17;102336.22;;;8.74;71.73
71424;BME280;59240;51.370;-0.486;2023-05-16T04:45:44;102345.81;;;8.80;71.13
71424;BME280;59240;51.370;-0.486;2023-05-16T04:48:10;102353.63;;;8.82;70.87
71424;BME280;59240;51.370;-0.486;2023-05-16T04:50:37;102323.16;;;8.68;71.87
71424;BME280;59240;51.370;-0.486;2023-05-16T04:53:04;102355.41;;;8.86;71.10
71424;BME280;59240;51.370;-0.486;2023-05-16T04:55:30;102352.81;;;8.86;71.20
71424;BME280;59240;51.370;-0.486;2023-05-16T04:57:57;102354.56;;;8.87;71.46
71424;BME280;59240;51.370;-0.486;2023-05-16T05:00:24;102358.03;;;8.90;72.23
71424;BME280;59240;51.370;-0.486;2023-05-16T05:02:51;102337.16;;;8.81;72.01
71424;BME280;59240;51.370;-0.486;2023-05-16T05:05:18;102344.16;;;8.88;71.84
71424;BME280;59240;51.370;-0.486;2023-05-16T05:07:44;102341.63;;;8.93;71.75
71424;BME280;59240;51.370;-0.486;2023-05-16T05:10:11;102356.44;;;9.03;72.74
71424;BME280;59240;51.370;-0.486;2023-05-16T05:12:38;102354.72;;;9.05;72.61
71424;BME280;59240;51.370;-0.486;2023-05-16T05:15:05;102352.19;;;9.11;72.37
71424;BME280;59240;51.370;-0.486;2023-05-16T05:17:31;102364.41;;;9.21;71.99
71424;BME280;59240;51.370;-0.486;2023-05-16T05:19:58;102338.44;;;9.24;72.71
71424;BME280;59240;51.370;-0.486;2023-05-16T05:22:28;102359.59;;;9.70;71.48
71424;BME280;59240;51.370;-0.486;2023-05-16T05:24:55;102345.06;;;10.04;71.34
71424;BME280;59240;51.370;-0.486;2023-05-16T05:27:21;102340.88;;;10.32;69.96
71424;BME280;59240;51.370;-0.486;2023-05-16T05:29:48;102358.38;;;10.64;69.65
71424;BME280;59240;51.370;-0.486;2023-05-16T05:32:14;102342.75;;;10.81;69.12
71424;BME280;59240;51.370;-0.486;2023-05-16T05:34:41;102340.16;;;10.96;69.51
71424;BME280;59240;51.370;-0.486;2023-05-16T05:37:08;102354.09;;;11.16;69.18
71424;BME280;59240;51.370;-0.486;2023-05-16T05:39:34;102361.97;;;11.33;69.02
71424;BME280;59240;51.370;-0.486;2023-05-16T05:42:01;102374.13;;;11.63;68.31
71424;BME280;59240;51.370;-0.486;2023-05-16T05:44:29;102370.63;;;11.69;68.74
71424;BME280;59240;51.370;-0.486;2023-05-16T05:46:56;102368.88;;;11.77;68.94
71424;BME280;59240;51.370;-0.486;2023-05-16T05:49:24;102371.50;;;11.83;68.50
71424;BME280;59240;51.370;-0.486;2023-05-16T05:51:51;102379.31;;;12.01;68.43
71424;BME280;59240;51.370;-0.486;2023-05-16T05:54:18;102369.72;;;12.05;68.38
71424;BME280;59240;51.370;-0.486;2023-05-16T05:56:45;102373.19;;;12.12;68.15
71424;BME280;59240;51.370;-0.486;2023-05-16T05:59:12;102390.59;;;12.22;68.10
71424;BME280;59240;51.370;-0.486;2023-05-16T06:01:38;102391.44;;;12.21;68.02
71424;BME280;59240;51.370;-0.486;2023-05-16T06:04:05;102385.34;;;12.19;67.71
71424;BME280;59240;51.370;-0.486;2023-05-16T06:06:32;102386.22;;;12.22;68.15
71424;BME280;59240;51.370;-0.486;2023-05-16T06:08:58;102392.25;;;12.35;67.87
71424;BME280;59240;51.370;-0.486;2023-05-16T06:11:25;102352.25;;;12.19;67.92
71424;BME280;59240;51.370;-0.486;2023-05-16T06:13:52;102394.00;;;12.42;67.19
71424;BME280;59240;51.370;-0.486;2023-05-16T06:16:18;102393.03;;;12.55;67.70
71424;BME280;59240;51.370;-0.486;2023-05-16T06:18:45;102403.47;;;12.62;67.22
71424;BME280;59240;51.370;-0.486;2023-05-16T06:21:13;102386.09;;;12.56;67.30
71424;BME280;59240;51.370;-0.486;2023-05-16T06:23:40;102390.41;;;12.66;67.12
71424;BME280;59240;51.370;-0.486;2023-05-16T06:26:07;102385.19;;;12.63;67.00
71424;BME280;59240;51.370;-0.486;2023-05-16T06:28:33;102385.16;;;12.68;66.81
71424;BME280;59240;51.370;-0.486;2023-05-16T06:31:00;102391.22;;;12.73;65.09
71424;BME280;59240;51.370;-0.486;2023-05-16T06:33:27;102368.63;;;12.66;66.43
71424;BME280;59240;51.370;-0.486;2023-05-16T06:35:54;102399.03;;;12.83;66.57
71424;BME280;59240;51.370;-0.486;2023-05-16T06:38:20;102411.13;;;12.97;65.95
71424;BME280;59240;51.370;-0.486;2023-05-16T06:40:47;102401.50;;;13.03;65.94
71424;BME280;59240;51.370;-0.486;2023-05-16T06:43:14;102412.81;;;13.11;65.86
71424;BME280;59240;51.370;-0.486;2023-05-16T06:45:41;102417.13;;;13.25;66.64
71424;BME280;59240;51.370;-0.486;2023-05-16T06:48:12;102410.94;;;13.33;66.11
71424;BME280;59240;51.370;-0.486;2023-05-16T06:50:40;102397.00;;;13.33;66.35
71424;BME280;59240;51.370;-0.486;2023-05-16T06:53:07;102416.03;;;13.50;65.79
71424;BME280;59240;51.370;-0.486;2023-05-16T06:55:34;102402.91;;;13.56;65.60
71424;BME280;59240;51.370;-0.486;2023-05-16T06:58:00;102395.91;;;13.58;65.23
71424;BME280;59240;51.370;-0.486;2023-05-16T07:00:27;102395.84;;;13.67;64.58
71424;BME280;59240;51.370;-0.486;2023-05-16T07:02:54;102416.59;;;13.86;64.91
71424;BME280;59240;51.370;-0.486;2023-05-16T07:05:20;102420.91;;;13.93;64.46
71424;BME280;59240;51.370;-0.486;2023-05-16T07:07:47;102421.78;;;13.92;61.93
71424;BME280;59240;51.370;-0.486;2023-05-16T07:10:14;102399.13;;;13.88;63.20
71424;BME280;59240;51.370;-0.486;2023-05-16T07:12:41;102407.75;;;13.99;63.67
71424;BME280;59240;51.370;-0.486;2023-05-16T07:15:09;102397.19;;;14.05;63.82
71424;BME280;59240;51.370;-0.486;2023-05-16T07:17:36;102406.56;;;14.26;62.40
71424;BME280;59240;51.370;-0.486;2023-05-16T07:20:03;102415.25;;;14.34;61.93
71424;BME280;59240;51.370;-0.486;2023-05-16T07:22:31;102393.47;;;14.28;60.66
71424;BME280;59240;51.370;-0.486;2023-05-16T07:24:58;102405.53;;;14.41;61.66
71424;BME280;59240;51.370;-0.486;2023-05-16T07:27:26;102414.16;;;14.55;62.00
71424;BME280;59240;51.370;-0.486;2023-05-16T07:29:53;102415.81;;;14.62;61.67
71424;BME280;59240;51.370;-0.486;2023-05-16T07:32:20;102423.56;;;14.68;61.74
71424;BME280;59240;51.370;-0.486;2023-05-16T07:34:46;102413.06;;;14.68;61.05
71424;BME280;59240;51.370;-0.486;2023-05-16T07:37:13;102420.81;;;14.79;60.37
71424;BME280;59240;51.370;-0.486;2023-05-16T07:39:41;102420.72;;;14.87;60.44
71424;BME280;59240;51.370;-0.486;2023-05-16T07:42:08;102425.81;;;14.99;60.18
71424;BME280;59240;51.370;-0.486;2023-05-16T07:44:35;102413.44;;;15.07;60.41
71424;BME280;59240;51.370;-0.486;2023-05-16T07:47:01;102422.00;;;15.20;58.95
71424;BME280;59240;51.370;-0.486;2023-05-16T07:49:29;102406.22;;;15.21;59.74
71424;BME280;59240;51.370;-0.486;2023-05-16T07:51:55;102425.13;;;15.45;59.35
71424;BME280;59240;51.370;-0.486;2023-05-16T07:54:22;102403.16;;;15.49;58.58
71424;BME280;59240;51.370;-0.486;2023-05-16T07:56:48;102426.56;;;15.64;57.93
71424;BME280;59240;51.370;-0.486;2023-05-16T07:59:15;102423.75;;;15.75;59.09
71424;BME280;59240;51.370;-0.486;2023-05-16T08:01:42;102407.91;;;15.81;58.69
71424;BME280;59240;51.370;-0.486;2023-05-16T08:04:08;102405.94;;;15.92;58.67
71424;BME280;59240;51.370;-0.486;2023-05-16T08:06:35;102423.06;;;16.14;57.81
71424;BME280;59240;51.370;-0.486;2023-05-16T08:09:02;102418.47;;;16.24;58.38
71424;BME280;59240;51.370;-0.486;2023-05-16T08:11:29;102427.81;;;16.40;58.01
71424;BME280;59240;51.370;-0.486;2023-05-16T08:13:55;102405.88;;;16.41;56.79
71424;BME280;59240;51.370;-0.486;2023-05-16T08:16:22;102419.53;;;16.59;57.17
71424;BME280;59240;51.370;-0.486;2023-05-16T08:18:48;102412.59;;;16.55;56.72
71424;BME280;59240;51.370;-0.486;2023-05-16T08:21:15;102424.63;;;16.68;57.43
71424;BME280;59240;51.370;-0.486;2023-05-16T08:23:42;102403.50;;;16.71;56.02
71424;BME280;59240;51.370;-0.486;2023-05-16T08:26:08;102422.38;;;16.91;55.37
71424;BME280;59240;51.370;-0.486;2023-05-16T08:28:35;102425.69;;;17.00;56.13
71424;BME280;59240;51.370;-0.486;2023-05-16T08:31:02;102413.34;;;17.02;55.20
71424;BME280;59240;51.370;-0.486;2023-05-16T08:33:29;102398.25;;;17.10;56.25
71424;BME280;59240;51.370;-0.486;2023-05-16T08:35:55;102400.59;;;17.22;55.23
71424;BME280;59240;51.370;-0.486;2023-05-16T08:38:22;102428.06;;;17.47;54.55
71424;BME280;59240;51.370;-0.486;2023-05-16T08:40:49;102419.16;;;17.53;54.11
71424;BME280;59240;51.370;-0.486;2023-05-16T08:43:15;102427.78;;;17.60;53.35
71424;BME280;59240;51.370;-0.486;2023-05-16T08:45:42;102405.97;;;17.53;53.12
71424;BME280;59240;51.370;-0.486;2023-05-16T08:48:09;102424.88;;;17.72;54.48
71424;BME280;59240;51.370;-0.486;2023-05-16T08:50:37;102412.41;;;17.79;53.31
71424;BME280;59240;51.370;-0.486;2023-05-16T08:53:06;102427.75;;;17.95;53.56
71424;BME280;59240;51.370;-0.486;2023-05-16T08:55:34;102423.88;;;18.09;50.21
71424;BME280;59240;51.370;-0.486;2023-05-16T08:58:02;102391.50;;;18.03;52.43
71424;BME280;59240;51.370;-0.486;2023-05-16T09:00:29;102417.38;;;18.22;51.50
71424;BME280;59240;51.370;-0.486;2023-05-16T09:02:56;102424.09;;;18.32;51.58
71424;BME280;59240;51.370;-0.486;2023-05-16T09:05:24;102428.81;;;18.53;52.18
71424;BME280;59240;51.370;-0.486;2023-05-16T09:07:51;102421.94;;;18.77;51.41
71424;BME280;59240;51.370;-0.486;2023-05-16T09:10:18;102425.16;;;18.87;50.77
71424;BME280;59240;51.370;-0.486;2023-05-16T09:12:44;102424.75;;;19.01;50.56
71424;BME280;59240;51.370;-0.486;2023-05-16T09:15:11;102433.41;;;19.06;49.33
71424;BME280;59240;51.370;-0.486;2023-05-16T09:17:40;102419.56;;;18.98;49.14
71424;BME280;59240;51.370;-0.486;2023-05-16T09:20:18;102427.06;;;19.11;42.77
71424;BME280;59240;51.370;-0.486;2023-05-16T09:22:53;102430.31;;;19.20;47.26
71424;BME280;59240;51.370;-0.486;2023-05-16T09:25:23;102435.41;;;19.26;44.62
71424;BME280;59240;51.370;-0.486;2023-05-16T09:27:56;102431.97;;;19.24;40.50
71424;BME280;59240;51.370;-0.486;2023-05-16T09:30:28;102416.78;;;19.30;45.22
71424;BME280;59240;51.370;-0.486;2023-05-16T09:32:56;102426.69;;;19.50;46.54
71424;BME280;59240;51.370;-0.486;2023-05-16T09:35:22;102411.28;;;19.64;47.71
71424;BME280;59240;51.370;-0.486;2023-05-16T09:38:15;102425.75;;;20.04;47.20
71424;BME280;59240;51.370;-0.486;2023-05-16T09:40:43;102414.41;;;20.26;46.06
71424;BME280;59240;51.370;-0.486;2023-05-16T09:43:14;102427.59;;;20.51;43.20
71424;BME280;59240;51.370;-0.486;2023-05-16T09:45:45;102415.31;;;20.73;45.85
71424;BME280;59240;51.370;-0.486;2023-05-16T09:48:13;102414.63;;;20.90;45.26
71424;BME280;59240;51.370;-0.486;2023-05-16T09:50:51;102433.19;;;21.12;44.45
71424;BME280;59240;51.370;-0.486;2023-05-16T09:53:29;102422.41;;;21.16;39.59
71424;BME280;59240;51.370;-0.486;2023-05-16T09:56:10;102430.97;;;21.01;42.67
71424;BME280;59240;51.370;-0.486;2023-05-16T09:58:38;102417.44;;;20.85;44.70
71424;BME280;59240;51.370;-0.486;2023-05-16T10:01:07;102428.94;;;20.62;43.37
71424;BME280;59240;51.370;-0.486;2023-05-16T10:03:36;102423.88;;;20.56;44.03
71424;BME280;59240;51.370;-0.486;2023-05-16T10:06:04;102415.00;;;20.57;41.64
71424;BME280;59240;51.370;-0.486;2023-05-16T10:08:33;102432.16;;;20.70;40.02
71424;BME280;59240;51.370;-0.486;2023-05-16T10:11:05;102418.13;;;20.68;43.06
71424;BME280;59240;51.370;-0.486;2023-05-16T10:13:33;102412.91;;;20.89;42.46
71424;BME280;59240;51.370;-0.486;2023-05-16T10:16:07;102402.50;;;21.06;42.69
71424;BME280;59240;51.370;-0.486;2023-05-16T10:18:37;102412.94;;;21.33;40.06
71424;BME280;59240;51.370;-0.486;2023-05-16T10:21:12;102428.66;;;21.15;40.02
71424;BME280;59240;51.370;-0.486;2023-05-16T10:23:46;102413.69;;;20.69;37.74
71424;BME280;59240;51.370;-0.486;2023-05-16T10:26:16;102419.72;;;20.72;42.71
71424;BME280;59240;51.370;-0.486;2023-05-16T10:28:43;102413.38;;;21.00;42.87
71424;BME280;59240;51.370;-0.486;2023-05-16T10:31:12;102394.97;;;21.17;42.56
71424;BME280;59240;51.370;-0.486;2023-05-16T10:33:40;102424.22;;;21.38;41.92
71424;BME280;59240;51.370;-0.486;2023-05-16T10:36:08;102404.72;;;20.95;40.04
71424;BME280;59240;51.370;-0.486;2023-05-16T10:38:37;102393.59;;;20.63;41.32
71424;BME280;59240;51.370;-0.486;2023-05-16T10:41:04;102414.34;;;20.52;40.95
71424;BME280;59240;51.370;-0.486;2023-05-16T10:43:32;102409.72;;;20.57;41.07
71424;BME280;59240;51.370;-0.486;2023-05-16T10:46:09;102395.53;;;20.58;38.82
71424;BME280;59240;51.370;-0.486;2023-05-16T10:48:38;102412.41;;;20.56;40.13
71424;BME280;59240;51.370;-0.486;2023-05-16T10:51:34;102414.84;;;20.37;35.43
71424;BME280;59240;51.370;-0.486;2023-05-16T10:54:09;102390.81;;;20.43;36.90
71424;BME280;59240;51.370;-0.486;2023-05-16T10:56:36;102409.09;;;20.96;40.81
71424;BME280;59240;51.370;-0.486;2023-05-16T10:59:03;102416.94;;;21.43;41.29
71424;BME280;59240;51.370;-0.486;2023-05-16T11:01:33;102408.22;;;21.81;39.10
71424;BME280;59240;51.370;-0.486;2023-05-16T11:04:06;102396.28;;;21.92;34.52
71424;BME280;59240;51.370;-0.486;2023-05-16T11:11:44;102423.84;;;21.67;37.65
71424;BME280;59240;51.370;-0.486;2023-05-16T11:14:25;102415.28;;;21.82;36.18
71424;BME280;59240;51.370;-0.486;2023-05-16T11:16:59;102413.66;;;21.78;33.45
71424;BME280;59240;51.370;-0.486;2023-05-16T11:19:38;102399.28;;;21.84;36.50
71424;BME280;59240;51.370;-0.486;2023-05-16T11:22:11;102402.38;;;22.14;37.24
71424;BME280;59240;51.370;-0.486;2023-05-16T11:25:07;102400.47;;;22.36;31.58
71424;BME280;59240;51.370;-0.486;2023-05-16T11:27:36;102386.00;;;22.62;37.69
71424;BME280;59240;51.370;-0.486;2023-05-16T11:30:15;102389.44;;;22.83;36.33
71424;BME280;59240;51.370;-0.486;2023-05-16T11:32:44;102403.41;;;22.88;36.07
71424;BME280;59240;51.370;-0.486;2023-05-16T11:35:24;102405.22;;;23.05;37.48
71424;BME280;59240;51.370;-0.486;2023-05-16T11:37:51;102383.63;;;23.30;36.85
71424;BME280;59240;51.370;-0.486;2023-05-16T11:40:18;102380.81;;;23.51;36.43
71424;BME280;59240;51.370;-0.486;2023-05-16T11:42:46;102396.66;;;23.88;35.99
71424;BME280;59240;51.370;-0.486;2023-05-16T11:45:20;102390.53;;;23.86;31.73
71424;BME280;59240;51.370;-0.486;2023-05-16T11:47:50;102405.09;;;23.96;35.58
71424;BME280;59240;51.370;-0.486;2023-05-16T11:50:19;102397.72;;;23.67;35.45
71424;BME280;59240;51.370;-0.486;2023-05-16T11:52:47;102398.19;;;23.58;36.60
71424;BME280;59240;51.370;-0.486;2023-05-16T11:55:16;102395.91;;;23.50;35.04
71424;BME280;59240;51.370;-0.486;2023-05-16T11:58:06;102392.06;;;23.38;36.24
71424;BME280;59240;51.370;-0.486;2023-05-16T12:00:33;102378.47;;;23.27;35.25
71424;BME280;59240;51.370;-0.486;2023-05-16T12:03:01;102387.94;;;22.97;35.24
71424;BME280;59240;51.370;-0.486;2023-05-16T12:05:31;102379.69;;;22.65;35.46
71424;BME280;59240;51.370;-0.486;2023-05-16T12:08:00;102374.03;;;22.73;35.71
71424;BME280;59240;51.370;-0.486;2023-05-16T12:10:30;102396.84;;;22.96;34.24
71424;BME280;59240;51.370;-0.486;2023-05-16T12:12:57;102393.34;;;22.95;34.62
71424;BME280;59240;51.370;-0.486;2023-05-16T12:15:24;102375.59;;;22.96;35.92
71424;BME280;59240;51.370;-0.486;2023-05-16T12:17:51;102394.84;;;23.18;35.08
71424;BME280;59240;51.370;-0.486;2023-05-16T12:20:18;102375.59;;;22.96;34.04
71424;BME280;59240;51.370;-0.486;2023-05-16T12:22:45;102364.63;;;22.65;34.79
71424;BME280;59240;51.370;-0.486;2023-05-16T12:25:25;102379.81;;;22.81;32.51
71424;BME280;59240;51.370;-0.486;2023-05-16T12:27:54;102373.47;;;22.83;33.90
71424;BME280;59240;51.370;-0.486;2023-05-16T12:30:26;102360.72;;;22.73;30.90
71424;BME280;59240;51.370;-0.486;2023-05-16T12:32:58;102375.66;;;22.75;30.11
71424;BME280;59240;51.370;-0.486;2023-05-16T12:35:31;102374.28;;;22.85;32.03
71424;BME280;59240;51.370;-0.486;2023-05-16T12:37:59;102376.53;;;22.95;33.18
71424;BME280;59240;51.370;-0.486;2023-05-16T12:40:29;102380.69;;;22.81;33.30
71424;BME280;59240;51.370;-0.486;2023-05-16T12:43:02;102388.38;;;22.50;31.16
71424;BME280;59240;51.370;-0.486;2023-05-16T12:45:28;102384.78;;;22.32;32.68
71424;BME280;59240;51.370;-0.486;2023-05-16T12:48:03;102376.03;;;22.09;28.90
71424;BME280;59240;51.370;-0.486;2023-05-16T12:50:32;102374.91;;;22.15;33.35
71424;BME280;59240;51.370;-0.486;2023-05-16T12:52:59;102365.09;;;22.17;33.45
71424;BME280;59240;51.370;-0.486;2023-05-16T12:55:26;102360.88;;;22.32;33.21
71424;BME280;59240;51.370;-0.486;2023-05-16T12:57:54;102343.66;;;22.41;32.26
71424;BME280;59240;51.370;-0.486;2023-05-16T13:00:21;102364.66;;;22.64;33.05
71424;BME280;59240;51.370;-0.486;2023-05-16T13:02:54;102348.88;;;22.61;33.26
71424;BME280;59240;51.370;-0.486;2023-05-16T13:05:26;102358.13;;;22.71;33.05
71424;BME280;59240;51.370;-0.486;2023-05-16T13:07:53;102365.50;;;22.83;33.15
71424;BME280;59240;51.370;-0.486;2023-05-16T13:10:20;102359.25;;;22.84;32.76